Historyczne dane pomiarowe

Dodano dane terminowe – wersja testowa.

Dane z okresu 1951-2019

Wersja bazy: 1.34 [2019-03-16, lista zmian], aktualizacja planowana na 2019-04-15

Dane meteo z obszaru Polski uzyskane na podstawie danych udostępnionych przez Instytut Meteorologii i Gospodarki Wodnej – Państwowy Instytut Badawczy.

 

Wybierz Datę:    

       

TemperaturaWilgotnośćWiatrCiśnienieOpadyŚniegCzas trwania zjawisk
 Stacja t tx tn tng RH VA  wxwx mslp ppp RRR   cm mm wxwxwxwxwxwxwx
1994-08-14 12.8 16.8 10.1- 78.8- 5.3 9.3---- 3.9------------
1994-08-13 15.9 21.6 13.0- 88.3- 7.7 7.3---- 10.6------------
1994-08-12 18.2 21.6 14.9- 87.3- 7.3 2.3---- 0.8------------
1994-08-11 19.5 24.0 16.2- 72.0- 8.0 4.3---- 31.8------------
1994-08-10 21.1 27.2 14.1- 76.5- 4.0 1.7---- 0.0------------
1994-08-09 20.3 24.5 17.2- 86.5- 4.7 1.0---- 0.2------------
1994-08-08 20.9 25.0 17.0- 88.3- 5.7 0.7---- 0.7------------
1994-08-07 22.4 27.3 17.1- 73.0- 7.0 1.0---- 15.5------------
1994-08-06 25.9 30.8 20.8- 62.0- 2.7 3.7---- 0.0------------
1994-08-05 25.3 32.5 15.0- 63.5- 0.3 2.3---- 0.0------------
1994-08-04 23.1 28.3 16.2- 66.3- 1.7 2.3---- 0.0------------
1994-08-03 23.5 28.5 18.2- 70.5- 3.0 1.7---- 0.0------------
1994-08-02 26.5 31.4 22.2- 64.8- 2.3 2.7---- 2.8------------
1994-08-01 28.6 36.3 18.8- 54.0- 1.7 1.3---- 0.3------------
1994-07-31 28.1 36.4 19.1- 55.8- 3.0 1.7---- 0.0------------
1994-07-30 27.3 36.4 16.8- 55.5- 1.7 1.0---- 0.0------------
1994-07-29 27.7 35.3 18.2- 55.8- 0.3 1.7---- 0.0------------
1994-07-28 27.5 34.9 16.4- 54.8- 1.3 1.7---- 0.0------------
1994-07-27 27.3 34.5 17.4- 51.5- 2.3 1.3---- 0.0------------
1994-07-26 26.2 34.0 16.3- 53.5- 0.7 1.0---- 0.0------------
1994-07-25 25.1 32.5 14.5- 53.5- 0.7 2.3---- 0.0------------
1994-07-24 23.8 30.5 14.0- 51.0- 0.3 2.0---- 0.0------------
1994-07-23 23.2 29.5 12.7- 60.8- 0.7 2.3---- 0.0------------
1994-07-22 21.1 28.0 12.7- 59.3- 1.0 3.3---- 0.0------------
1994-07-21 20.7 27.9 10.7- 61.5- 0.0 1.3---- 0.0------------
1994-07-20 18.2 24.0 9.3- 65.3- 0.3 3.3---- 0.0------------
1994-07-19 18.3 23.0 10.5- 61.3- 3.0 5.0---- 0.0------------
1994-07-18 19.5 24.2 13.8- 72.0- 4.7 2.3---- 0.0------------
1994-07-17 21.0 27.3 16.4- 80.3- 4.7 2.7---- 15.0------------
1994-07-16 23.0 27.2 16.5- 72.3- 5.0 3.0---- 1.6------------
1994-07-15 24.1 30.0 16.4- 69.0- 4.0 1.3---- 0.0------------
1994-07-14 23.7 30.2 13.9- 72.0- 3.3 2.0---- 0.0------------
1994-07-13 24.0 31.5 15.2- 67.8- 1.0 2.0---- 0.0------------
1994-07-12 22.4 26.9 15.2- 71.5- 2.0 3.3---- 0.0------------
1994-07-11 21.4 27.3 13.8- 65.5- 1.0 3.3---- 0.0------------
1994-07-10 19.6 25.0 11.7- 77.5- 3.0 2.7---- 0.0------------
1994-07-09 16.2 21.5 12.2- 89.3- 7.0 3.0---- 0.6------------
1994-07-08 13.8 20.5 12.1- 94.5- 8.0 7.0---- 32.2------------
1994-07-07 19.1 26.5 9.3- 71.8- 5.0 1.3---- 10.9------------
1994-07-06 19.5 25.6 13.3- 65.8- 4.3 2.0---- 0.0------------
1994-07-05 18.6 23.6 12.2- 73.8- 5.7 2.3---- 0.2------------
1994-07-04 20.8 28.0 11.0- 58.0- 0.7 1.7---- 0.0------------
1994-07-03 19.7 27.0 9.6- 61.3- 0.0 3.0---- 0.0------------
1994-07-02 17.7 24.5 9.4- 66.5- 0.0 2.7---- 0.0------------
1994-07-01 17.2 22.5 10.4- 73.8- 2.0 2.0---- 0.0------------
1994-06-30 19.9 28.5 10.9- 79.3- 6.3 3.7---- 0.0------------
1994-06-29 25.8 33.4 15.6- 69.0- 2.0 2.0---- 10.0------------
1994-06-28 23.0 28.9 15.3- 74.0- 1.0 1.0---- 0.0------------
1994-06-27 23.4 29.5 14.4- 70.8- 2.0 2.0---- 0.0------------
1994-06-26 22.9 31.0 11.7- 58.3- 2.3 1.7---- 0.0------------
1994-06-25 17.0 24.5 5.4- 59.8- 0.0 3.7---- 0.0------------
1994-06-24 14.5 20.2 7.2- 62.5- 0.7 5.0---- 0.0------------
1994-06-23 16.5 20.9 11.9- 56.0- 1.7 9.3---- 0.0------------
1994-06-22 19.3 24.7 13.6- 72.3- 6.3 5.3---- 0.0------------
1994-06-21 16.7 23.0 6.9- 67.5- 1.7 0.7---- 0.0------------
1994-06-20 16.6 20.8 13.7- 63.8- 3.0 5.7---- 0.0------------
1994-06-19 17.1 22.8 11.5- 77.0- 6.3 4.3---- 0.0------------
1994-06-18 13.2 18.5 4.8- 76.3- 6.3 3.7---- 8.8------------
1994-06-17 10.8 14.2 6.9- 71.5- 6.0 5.0---- 0.0------------
1994-06-16 11.9 15.2 8.7- 77.0- 7.7 6.7---- 2.2------------
304.0 ms

 

Źródłem pochodzenia danych jest Instytut Meteorologii i Gospodarki Wodnej – Państwowy Instytut Badawczy. Dane Instytutu Meteorologii i Gospodarki Wodnej – Państwowego Instytutu Badawczego zostały przetworzone.

Dane źródłowe można odnaleźć na stronie https://dane.imgw.pl